Time;durP1;ratioP1;P1;durP2;ratioP2;P2;SDS_P1;SDS_P2;PMS_P1;PMS_P2;Temp;Humidity;BMP_temperature;BMP_pressure;BME280_temperature;BME280_humidity;BME280_pressure;Samples;Min_cycle;Max_cycle;Signal;HPM_P1;HPM_P2
2023/09/14 00:00:47;;;;;;;10.70;2.03;;;;;;;13.02;89.71;101457.66;7381885;19;20899;-76
2023/09/14 00:03:14;;;;;;;5.97;1.75;;;;;;;13.01;89.57;101456.00;7379513;19;20915;-76
2023/09/14 00:05:47;;;;;;;8.20;2.05;;;;;;;13.01;89.16;101455.19;7372965;19;20460;-76
2023/09/14 00:08:14;;;;;;;10.15;2.35;;;;;;;12.98;89.36;101456.34;7381674;19;20379;-76
2023/09/14 00:10:41;;;;;;;5.93;2.00;;;;;;;13.01;89.20;101460.53;7378439;19;21108;-76
2023/09/14 00:13:09;;;;;;;5.28;1.73;;;;;;;13.02;89.11;101456.84;7379577;19;20427;-76
2023/09/14 00:15:39;;;;;;;6.57;2.03;;;;;;;13.05;89.38;101461.84;7378083;19;20390;-76
2023/09/14 00:18:06;;;;;;;5.63;1.95;;;;;;;13.12;89.33;101456.66;7384135;19;20671;-76
2023/09/14 00:20:34;;;;;;;7.60;2.13;;;;;;;13.15;88.94;101456.28;7383801;19;20368;-76
2023/09/14 00:23:03;;;;;;;5.70;1.95;;;;;;;13.16;88.84;101450.78;7378178;19;20371;-76
2023/09/14 00:25:29;;;;;;;7.68;2.05;;;;;;;13.18;88.83;101453.28;7379513;19;20416;-76
2023/09/14 00:27:56;;;;;;;5.93;1.60;;;;;;;13.19;88.59;101454.94;7383166;19;20692;-76
2023/09/14 00:30:24;;;;;;;5.38;1.70;;;;;;;13.14;88.28;101457.31;7379041;19;20355;-76
2023/09/14 00:32:52;;;;;;;7.57;1.70;;;;;;;13.08;88.31;101450.81;7379761;19;20376;-75
2023/09/14 00:35:19;;;;;;;6.53;1.98;;;;;;;13.02;88.24;101444.34;7377888;19;20369;-76
2023/09/14 00:37:47;;;;;;;8.43;2.10;;;;;;;13.00;88.67;101446.34;7378240;19;20502;-76
2023/09/14 00:40:15;;;;;;;8.68;1.85;;;;;;;12.98;88.40;101443.03;7378651;19;20865;-76
2023/09/14 00:42:44;;;;;;;7.00;2.20;;;;;;;12.98;88.74;101448.34;7373332;19;20531;-76
2023/09/14 00:45:13;;;;;;;8.75;2.28;;;;;;;12.99;88.97;101447.38;7380373;19;20361;-76
2023/09/14 00:47:43;;;;;;;6.40;2.00;;;;;;;13.02;89.04;101448.84;7379166;19;20356;-76
2023/09/14 00:50:15;;;;;;;6.20;1.80;;;;;;;13.03;88.47;101456.66;7378927;19;20364;-76
2023/09/14 00:52:44;;;;;;;6.60;2.00;;;;;;;13.03;88.41;101456.66;7382270;19;20377;-76
2023/09/14 00:55:15;;;;;;;5.82;1.80;;;;;;;13.03;88.45;101461.19;7375568;19;20352;-76
2023/09/14 00:57:43;;;;;;;7.60;1.85;;;;;;;13.02;87.95;101470.16;7374997;19;21002;-76
2023/09/14 01:00:11;;;;;;;7.30;2.07;;;;;;;12.96;87.97;101461.03;7374752;19;20475;-76
2023/09/14 01:02:40;;;;;;;5.25;2.13;;;;;;;12.92;88.62;101470.38;7376450;19;20376;-76
2023/09/14 01:05:08;;;;;;;4.75;1.67;;;;;;;12.84;88.20;101473.88;7373871;19;20397;-76
2023/09/14 01:07:35;;;;;;;5.07;1.75;;;;;;;12.75;88.37;101474.06;7378726;19;20411;-76
2023/09/14 01:10:04;;;;;;;5.70;1.60;;;;;;;12.70;88.82;101465.75;7379833;19;20900;-76
2023/09/14 01:12:32;;;;;;;6.67;1.80;;;;;;;12.71;89.12;101478.06;7378871;19;20460;-75
2023/09/14 01:15:14;;;;;;;7.53;2.28;;;;;;;12.71;89.06;101467.41;7375603;19;20376;-75
2023/09/14 01:18:03;;;;;;;5.50;1.73;;;;;;;12.72;89.18;101469.09;7380247;19;21382;-75
2023/09/14 01:20:58;;;;;;;6.73;2.27;;;;;;;12.71;88.88;101468.25;7378897;19;20364;-75
2023/09/14 01:23:47;;;;;;;6.00;1.60;;;;;;;12.68;89.05;101478.41;7386412;19;20366;-76
2023/09/14 01:26:16;;;;;;;7.60;1.60;;;;;;;12.65;89.05;101469.75;7382988;19;20408;-76
2023/09/14 01:28:42;;;;;;;5.13;1.58;;;;;;;12.62;89.23;101467.44;7384519;19;20360;-76
2023/09/14 01:31:10;;;;;;;5.82;1.73;;;;;;;12.63;89.59;101477.09;7386035;19;20365;-76
2023/09/14 01:33:37;;;;;;;4.45;1.70;;;;;;;12.63;89.57;101477.09;7386315;19;20364;-76
2023/09/14 01:36:14;;;;;;;6.57;2.05;;;;;;;12.64;89.91;101477.91;7380626;19;20368;-76
2023/09/14 01:38:43;;;;;;;6.15;1.80;;;;;;;12.63;89.77;101477.09;7382042;19;20999;-76
2023/09/14 01:41:12;;;;;;;6.82;1.73;;;;;;;12.65;90.05;101483.06;7382207;19;20720;-76
2023/09/14 01:43:39;;;;;;;13.27;2.75;;;;;;;12.64;89.68;101477.91;7385603;19;20382;-76
2023/09/14 01:46:07;;;;;;;6.43;2.20;;;;;;;12.63;89.80;101479.75;7386035;19;20368;-76
2023/09/14 01:48:34;;;;;;;5.90;1.80;;;;;;;12.63;89.74;101476.25;7385053;19;20375;-75
2023/09/14 01:51:01;;;;;;;6.80;1.90;;;;;;;12.62;89.51;101478.09;7384745;19;20428;-75
2023/09/14 01:53:28;;;;;;;6.90;1.65;;;;;;;12.62;89.89;101478.09;7386812;19;20360;-76
2023/09/14 01:55:55;;;;;;;4.72;1.35;;;;;;;12.58;89.44;101476.78;7376788;19;20368;-75
2023/09/14 01:58:22;;;;;;;6.97;1.83;;;;;;;12.55;89.71;101493.06;7382967;19;20369;-75
2023/09/14 02:00:50;;;;;;;6.30;1.90;;;;;;;12.52;90.03;101479.28;7383926;19;20366;-75
2023/09/14 02:03:16;;;;;;;4.28;1.75;;;;;;;12.48;90.02;101478.78;7382555;19;20356;-76
2023/09/14 02:05:44;;;;;;;5.43;1.90;;;;;;;12.40;90.36;101481.44;7384550;19;20693;-76
2023/09/14 02:08:11;;;;;;;6.63;1.88;;;;;;;12.39;90.88;101474.47;7384125;19;20364;-76
2023/09/14 02:10:38;;;;;;;5.88;1.80;;;;;;;12.34;90.69;101482.94;7382523;19;20348;-76
2023/09/14 02:13:05;;;;;;;6.85;1.45;;;;;;;12.34;91.05;101482.94;7384344;19;20356;-75
2023/09/14 02:15:35;;;;;;;8.50;2.30;;;;;;;12.38;90.80;101483.44;7374849;19;20348;-75
2023/09/14 02:18:02;;;;;;;5.63;1.70;;;;;;;12.37;90.73;101481.78;7384478;19;20385;-75
2023/09/14 02:20:29;;;;;;;5.93;1.75;;;;;;;12.39;90.86;101480.63;7383199;19;20871;-75
2023/09/14 02:22:56;;;;;;;5.43;1.63;;;;;;;12.40;90.64;101476.13;7383956;19;20361;-75
2023/09/14 02:25:23;;;;;;;5.75;1.80;;;;;;;12.43;90.70;101483.75;7386363;19;20360;-75
2023/09/14 02:27:50;;;;;;;5.90;1.80;;;;;;;12.43;90.73;101481.94;7384413;19;20373;-75
2023/09/14 02:30:17;;;;;;;4.97;1.73;;;;;;;12.41;90.52;101483.09;7382168;19;20377;-75
2023/09/14 02:32:44;;;;;;;3.10;1.38;;;;;;;12.37;90.26;101476.47;7379598;19;20380;-76
2023/09/14 02:35:11;;;;;;;7.18;1.77;;;;;;;12.37;90.81;101476.47;7381049;19;20364;-75
2023/09/14 02:37:38;;;;;;;5.80;1.80;;;;;;;12.39;90.79;101475.28;7386009;19;20397;-75
2023/09/14 02:40:06;;;;;;;6.88;1.75;;;;;;;12.40;90.56;101482.25;7378853;19;20786;-75
2023/09/14 02:42:36;;;;;;;6.82;1.90;;;;;;;12.39;90.44;101485.13;7382480;19;20369;-76
2023/09/14 02:45:06;;;;;;;5.13;1.63;;;;;;;12.38;90.17;101478.13;7386346;19;20848;-76
2023/09/14 02:47:33;;;;;;;7.82;1.70;;;;;;;12.36;90.22;101480.09;7386447;19;20879;-76
2023/09/14 02:50:00;;;;;;;7.95;2.05;;;;;;;12.32;90.29;101478.78;7381076;19;20456;-76
2023/09/14 02:52:26;;;;;;;4.57;1.80;;;;;;;12.28;90.42;101483.59;7381294;19;20884;-76
2023/09/14 02:54:53;;;;;;;5.23;1.70;;;;;;;12.27;90.41;101489.94;7379100;19;20758;-76
2023/09/14 02:57:20;;;;;;;4.25;1.48;;;;;;;12.24;90.35;101480.47;7380340;19;20360;-76
2023/09/14 02:59:47;;;;;;;4.97;1.70;;;;;;;12.25;90.72;101486.59;7385902;19;20364;-76
2023/09/14 03:02:14;;;;;;;5.70;2.17;;;;;;;12.21;90.47;101483.44;7379533;19;20437;-76
2023/09/14 03:04:41;;;;;;;7.60;2.00;;;;;;;12.19;90.69;101490.75;7383676;19;21207;-76
2023/09/14 03:07:08;;;;;;;5.82;2.53;;;;;;;12.17;90.98;101479.44;7382702;19;20389;-76
2023/09/14 03:09:35;;;;;;;10.60;1.60;;;;;;;12.16;90.99;101483.13;7381578;19;20363;-76
2023/09/14 03:12:02;;;;;;;3.60;1.45;;;;;;;12.16;90.94;101479.63;7377166;19;20404;-76
2023/09/14 03:14:29;;;;;;;6.20;2.25;;;;;;;12.18;91.16;101478.47;7377276;19;20356;-76
2023/09/14 03:16:57;;;;;;;5.50;2.00;;;;;;;12.21;91.12;101486.09;7381475;19;20432;-76
2023/09/14 03:19:25;;;;;;;5.20;2.20;;;;;;;12.24;90.98;101488.44;7382272;19;20360;-76
2023/09/14 03:21:52;;;;;;;6.63;2.17;;;;;;;12.26;90.76;101495.41;7381796;19;21041;-76
2023/09/14 03:24:18;;;;;;;5.68;2.33;;;;;;;12.22;90.82;101490.44;7380371;19;20936;-76
2023/09/14 03:26:46;;;;;;;5.35;1.90;;;;;;;12.20;90.19;101495.09;7375608;19;20361;-76
2023/09/14 03:29:13;;;;;;;6.47;2.45;;;;;;;12.16;90.83;101507.06;7378900;19;20368;-76
2023/09/14 03:31:41;;;;;;;6.50;2.45;;;;;;;12.13;90.44;101501.22;7379928;19;20349;-76
2023/09/14 03:34:08;;;;;;;11.07;2.33;;;;;;;12.10;90.71;101497.06;7382911;19;20891;-76
2023/09/14 03:36:36;;;;;;;7.17;1.80;;;;;;;12.09;90.56;101494.56;7382095;19;20364;-76
2023/09/14 03:39:03;;;;;;;5.13;1.52;;;;;;;12.08;90.84;101500.91;7381995;19;20377;-76
2023/09/14 03:41:34;;;;;;;6.53;1.88;;;;;;;12.08;90.92;101504.38;7380642;19;20361;-76
2023/09/14 03:44:00;;;;;;;5.80;1.95;;;;;;;12.10;91.01;101510.38;7379205;19;20387;-76
2023/09/14 03:46:27;;;;;;;5.15;1.58;;;;;;;12.12;90.99;101511.03;7381537;19;20807;-76
2023/09/14 03:48:54;;;;;;;5.95;2.03;;;;;;;12.14;90.67;101514.38;7379118;19;20365;-76
2023/09/14 03:51:21;;;;;;;7.05;2.08;;;;;;;12.16;90.36;101514.22;7379811;19;20348;-75
2023/09/14 03:53:48;;;;;;;5.28;1.80;;;;;;;12.13;90.13;101510.03;7380169;19;20365;-75
2023/09/14 03:56:15;;;;;;;6.80;1.85;;;;;;;12.06;89.89;101517.00;7378954;19;20982;-75
2023/09/14 03:58:42;;;;;;;5.07;1.60;;;;;;;12.02;90.26;101518.34;7383967;19;20492;-75
2023/09/14 04:01:09;;;;;;;5.00;1.73;;;;;;;11.99;90.36;101510.69;7381171;19;20933;-75
2023/09/14 04:03:36;;;;;;;4.95;1.80;;;;;;;11.97;90.50;101512.69;7379427;19;20365;-75
2023/09/14 04:06:03;;;;;;;5.35;2.10;;;;;;;12.00;91.22;101512.34;7379644;19;20375;-75
2023/09/14 04:08:31;;;;;;;6.03;2.28;;;;;;;12.03;90.92;101512.84;7381277;19;20356;-76
2023/09/14 04:11:01;;;;;;;6.03;2.08;;;;;;;12.06;90.50;101516.19;7375978;19;20352;-76
2023/09/14 04:13:33;;;;;;;5.68;1.75;;;;;;;12.06;90.75;101519.66;7381351;19;20360;-76
2023/09/14 04:16:05;;;;;;;4.13;1.65;;;;;;;12.01;90.33;101527.31;7378445;19;20428;-76
2023/09/14 04:18:35;;;;;;;4.95;1.60;;;;;;;12.04;90.60;101532.28;7377376;19;20352;-76
2023/09/14 04:21:03;;;;;;;6.03;2.30;;;;;;;12.06;90.43;101532.13;7379726;19;20364;-76
2023/09/14 04:23:30;;;;;;;5.60;1.70;;;;;;;12.03;90.01;101528.00;7378568;19;20365;-76
2023/09/14 04:26:00;;;;;;;9.15;3.55;;;;;;;12.02;90.20;101531.63;7378819;19;20888;-77
2023/09/14 04:28:28;;;;;;;6.20;2.00;;;;;;;12.09;92.40;101526.47;7377068;19;21306;-76
2023/09/14 04:30:58;;;;;;;8.68;3.30;;;;;;;12.16;92.26;101528.34;7378624;19;20361;-76
2023/09/14 04:33:26;;;;;;;6.72;1.80;;;;;;;12.27;93.12;101532.50;7375479;19;20356;-75
2023/09/14 04:36:01;;;;;;;7.38;2.13;;;;;;;12.50;96.86;101531.84;7372295;19;20382;-77
2023/09/14 04:38:29;;;;;;;6.32;1.70;;;;;;;12.58;93.19;101527.34;7379858;19;20670;-77
2023/09/14 04:40:56;;;;;;;6.00;1.90;;;;;;;12.68;93.18;101536.97;7375605;19;20416;-77
2023/09/14 04:43:24;;;;;;;5.28;2.05;;;;;;;12.71;91.41;101532.16;7379011;19;20381;-77
2023/09/14 04:45:51;;;;;;;5.77;1.90;;;;;;;12.74;90.68;101538.97;7373153;19;20372;-77
2023/09/14 04:48:17;;;;;;;3.70;1.60;;;;;;;12.73;89.44;101535.47;7377991;19;20356;-77
2023/09/14 04:50:44;;;;;;;5.53;1.73;;;;;;;12.70;88.94;101538.47;7378611;19;20987;-77
2023/09/14 04:53:11;;;;;;;7.45;1.85;;;;;;;12.68;88.76;101537.78;7379346;19;20375;-77
2023/09/14 04:55:38;;;;;;;5.95;1.67;;;;;;;12.67;89.45;101535.31;7376699;19;20363;-77
2023/09/14 04:58:06;;;;;;;5.25;1.67;;;;;;;12.68;88.58;101536.97;7378293;19;20355;-77
2023/09/14 05:00:33;;;;;;;4.68;1.90;;;;;;;12.56;88.50;101534.66;7380695;19;20398;-77
2023/09/14 05:03:04;;;;;;;6.23;2.10;;;;;;;12.44;88.50;101536.00;7379056;19;20348;-76
2023/09/14 05:05:32;;;;;;;7.03;1.88;;;;;;;12.40;88.51;101540.81;7381001;19;20361;-75
2023/09/14 05:08:00;;;;;;;7.28;2.13;;;;;;;12.39;88.85;101548.97;7378606;19;20373;-75
2023/09/14 05:10:27;;;;;;;7.70;2.10;;;;;;;12.43;88.50;101550.28;7380701;19;20356;-75
2023/09/14 05:12:54;;;;;;;4.90;1.58;;;;;;;12.40;88.56;101553.28;7377726;19;20351;-75
2023/09/14 05:15:22;;;;;;;5.15;2.00;;;;;;;12.46;89.20;101549.97;7379799;19;20375;-75
2023/09/14 05:17:50;;;;;;;7.20;2.00;;;;;;;12.60;91.25;101551.09;7378358;19;20356;-75
2023/09/14 05:20:18;;;;;;;6.32;2.00;;;;;;;12.68;90.14;101550.28;7380481;19;20364;-76
2023/09/14 05:22:45;;;;;;;5.90;2.10;;;;;;;12.73;89.77;101556.78;7374771;19;20856;-76
2023/09/14 05:25:12;;;;;;;7.80;1.92;;;;;;;12.78;88.85;101550.94;7382534;19;20352;-76
2023/09/14 05:27:41;;;;;;;6.47;2.28;;;;;;;12.87;88.62;101552.59;7378413;19;20361;-76
2023/09/14 05:30:09;;;;;;;7.55;1.60;;;;;;;12.90;87.45;101556.72;7378349;19;20738;-76
2023/09/14 05:32:39;;;;;;;6.25;1.80;;;;;;;12.89;87.38;101561.25;7378555;19;20813;-76
2023/09/14 05:35:06;;;;;;;5.32;1.60;;;;;;;12.89;87.05;101555.91;7380929;19;20364;-76
2023/09/14 05:37:34;;;;;;;7.40;2.17;;;;;;;12.89;87.20;101565.75;7378194;19;20366;-76
2023/09/14 05:40:09;;;;;;;5.27;1.83;;;;;;;13.08;88.51;101564.53;7377854;19;20446;-76
2023/09/14 05:42:39;;;;;;;8.30;2.03;;;;;;;13.19;87.76;101570.31;7379341;19;20368;-76
2023/09/14 05:45:11;;;;;;;5.53;1.90;;;;;;;13.28;86.78;101571.13;7377975;19;20848;-77
2023/09/14 05:47:40;;;;;;;6.90;2.13;;;;;;;13.23;85.27;101573.47;7376313;19;20352;-76
2023/09/14 05:50:08;;;;;;;5.68;2.17;;;;;;;13.18;85.61;101576.66;7379702;19;20379;-77
2023/09/14 05:52:36;;;;;;;6.78;1.50;;;;;;;13.26;85.79;101573.16;7381938;19;20373;-76
2023/09/14 05:55:06;;;;;;;7.70;2.40;;;;;;;13.35;86.02;101571.34;7378447;19;20349;-77
2023/09/14 05:57:34;;;;;;;5.78;1.88;;;;;;;13.40;85.47;101569.78;7369096;19;20361;-76
2023/09/14 06:00:08;;;;;;;6.90;1.92;;;;;;;13.48;85.76;101576.13;7378146;19;20364;-77
2023/09/14 06:02:40;;;;;;;9.48;2.42;;;;;;;13.53;85.13;101579.09;7384876;19;20361;-77
2023/09/14 06:05:10;;;;;;;11.48;2.72;;;;;;;13.56;84.88;101576.09;7388936;19;20410;-77
2023/09/14 06:07:51;;;;;;;6.57;2.38;;;;;;;13.59;84.80;101578.41;7394152;19;20378;-77
2023/09/14 06:10:18;;;;;;;6.07;1.90;;;;;;;13.60;85.34;101586.22;7393846;19;20374;-76
2023/09/14 06:12:46;;;;;;;6.30;2.42;;;;;;;13.69;85.57;101594.19;7393300;19;20714;-76
2023/09/14 06:15:12;;;;;;;5.80;2.13;;;;;;;13.69;84.54;101584.34;7393905;19;20372;-77
2023/09/14 06:17:39;;;;;;;10.35;5.03;;;;;;;13.76;85.58;101584.50;7389486;19;20780;-77
2023/09/14 06:20:07;;;;;;;5.27;1.47;;;;;;;13.86;85.25;101591.28;7393071;19;20452;-77
2023/09/14 06:22:34;;;;;;;7.85;2.38;;;;;;;13.98;85.38;101598.88;7390308;19;20360;-76
2023/09/14 06:25:01;;;;;;;6.20;2.17;;;;;;;14.14;85.16;101595.28;7387726;19;20399;-76
2023/09/14 06:27:28;;;;;;;8.70;2.33;;;;;;;14.26;84.79;101602.72;7394774;19;21119;-76
2023/09/14 06:29:55;;;;;;;6.63;1.90;;;;;;;14.32;83.55;101590.47;7393281;19;20374;-77
2023/09/14 06:32:21;;;;;;;5.35;2.00;;;;;;;14.29;83.16;101601.53;7391228;19;21150;-76
2023/09/14 06:34:48;;;;;;;7.10;2.30;;;;;;;14.37;83.43;101597.97;7391375;19;20369;-76
2023/09/14 06:37:15;;;;;;;6.13;2.25;;;;;;;14.41;83.46;101596.63;7389219;19;20392;-77
2023/09/14 06:39:42;;;;;;;7.53;2.15;;;;;;;14.48;82.84;101602.88;7390627;19;20413;-77
2023/09/14 06:42:09;;;;;;;8.52;2.38;;;;;;;14.57;82.40;101609.84;7390503;19;21556;-77
2023/09/14 06:44:36;;;;;;;5.88;2.40;;;;;;;14.70;83.54;101603.09;7391849;19;20373;-77
2023/09/14 06:47:03;;;;;;;8.32;2.30;;;;;;;14.79;81.86;101607.34;7394101;19;20871;-77
2023/09/14 06:49:30;;;;;;;10.57;4.30;;;;;;;14.88;80.73;101611.63;7393677;19;20386;-75
2023/09/14 06:51:57;;;;;;;5.72;2.50;;;;;;;14.82;80.81;101610.47;7394117;19;21124;-75
2023/09/14 06:54:24;;;;;;;9.48;2.63;;;;;;;14.89;80.53;101611.41;7391717;19;20775;-75
2023/09/14 06:56:51;;;;;;;6.78;2.50;;;;;;;14.91;79.66;101619.25;7387821;19;20407;-75
2023/09/14 06:59:18;;;;;;;9.63;2.40;;;;;;;14.88;79.06;101615.09;7385651;19;20464;-76
2023/09/14 07:01:44;;;;;;;7.73;2.23;;;;;;;14.90;79.51;101620.28;7392089;19;20414;-77
2023/09/14 07:04:11;;;;;;;6.37;2.20;;;;;;;14.91;79.28;101613.09;7391625;19;20357;-77
2023/09/14 07:06:39;;;;;;;7.32;2.22;;;;;;;15.00;79.87;101615.50;7393099;19;20391;-77
2023/09/14 07:09:07;;;;;;;7.95;2.75;;;;;;;15.04;79.50;101613.28;7386752;19;20694;-78
2023/09/14 07:11:34;;;;;;;12.43;2.63;;;;;;;15.15;79.70;101612.88;7388291;19;20364;-78
2023/09/14 07:14:02;;;;;;;9.60;2.00;;;;;;;15.21;78.20;101608.59;7392124;19;20767;-78
2023/09/14 07:16:29;;;;;;;7.78;2.40;;;;;;;15.23;78.30;101614.59;7386919;19;20341;-77
2023/09/14 07:18:56;;;;;;;6.47;2.03;;;;;;;15.31;77.88;101619.03;7388994;19;20420;-77
2023/09/14 07:21:23;;;;;;;7.20;2.20;;;;;;;15.27;76.60;101621.25;7391115;19;20348;-77
2023/09/14 07:23:50;;;;;;;7.72;2.22;;;;;;;15.26;76.81;101625.78;7394099;19;20364;-77
2023/09/14 07:26:17;;;;;;;6.30;1.95;;;;;;;15.34;77.89;101627.50;7389628;19;20356;-77
2023/09/14 07:28:44;;;;;;;6.78;2.08;;;;;;;15.46;77.41;101631.38;7389918;19;20942;-77
2023/09/14 07:31:11;;;;;;;8.50;2.83;;;;;;;15.64;77.39;101632.84;7391212;19;20385;-77
2023/09/14 07:33:39;;;;;;;6.53;2.20;;;;;;;15.80;76.44;101634.56;7389385;19;20394;-77
2023/09/14 07:36:06;;;;;;;6.22;2.20;;;;;;;15.90;76.41;101632.41;7388563;19;20756;-77
2023/09/14 07:38:33;;;;;;;11.95;2.70;;;;;;;16.00;74.87;101637.47;7383587;19;20782;-77
2023/09/14 07:40:59;;;;;;;6.25;1.90;;;;;;;16.09;75.09;101631.81;7390755;19;20370;-77
2023/09/14 07:43:27;;;;;;;10.55;3.00;;;;;;;16.16;74.29;101625.72;7388452;19;20905;-77
2023/09/14 07:45:55;;;;;;;10.65;2.63;;;;;;;16.27;74.57;101627.88;7390515;19;20389;-77
2023/09/14 07:48:23;;;;;;;16.52;3.15;;;;;;;16.38;73.70;101631.91;7389316;19;20364;-77
2023/09/14 07:50:52;;;;;;;12.98;2.90;;;;;;;16.48;73.81;101635.09;7386909;19;20436;-77
2023/09/14 07:53:19;;;;;;;13.63;3.08;;;;;;;16.57;73.28;101641.16;7391738;19;20389;-77
2023/09/14 07:55:52;;;;;;;15.73;2.95;;;;;;;16.65;72.75;101641.88;7385503;19;20369;-77
2023/09/14 07:58:22;;;;;;;13.50;3.03;;;;;;;16.74;73.10;101636.38;7387627;19;20361;-76
2023/09/14 08:00:49;;;;;;;10.07;3.00;;;;;;;16.85;73.22;101643.91;7392772;19;20340;-76
2023/09/14 08:03:16;;;;;;;15.05;4.05;;;;;;;17.06;72.78;101646.56;7389469;19;20614;-76
2023/09/14 08:05:44;;;;;;;10.15;2.90;;;;;;;17.18;72.27;101646.03;7388916;19;20352;-76
2023/09/14 08:08:11;;;;;;;10.43;3.17;;;;;;;17.31;71.57;101646.13;7388525;19;20365;-76
2023/09/14 08:10:38;;;;;;;13.00;3.20;;;;;;;17.40;71.77;101652.16;7383902;19;20360;-75
2023/09/14 08:13:05;;;;;;;21.35;3.35;;;;;;;17.58;70.82;101651.66;7382140;19;20347;-75
2023/09/14 08:15:32;;;;;;;18.33;3.30;;;;;;;17.69;70.47;101653.78;7391062;19;20473;-75
2023/09/14 08:17:58;;;;;;;14.17;3.47;;;;;;;17.76;68.71;101651.94;7390392;19;20787;-75
2023/09/14 08:20:26;;;;;;;12.70;3.43;;;;;;;17.70;67.27;101660.78;7388971;19;20728;-75
2023/09/14 08:22:53;;;;;;;17.73;3.83;;;;;;;17.76;68.15;101654.63;7391846;19;20904;-75
2023/09/14 08:25:20;;;;;;;10.70;2.95;;;;;;;17.97;67.78;101666.34;7391938;19;20420;-75
2023/09/14 08:27:47;;;;;;;17.08;3.42;;;;;;;18.05;66.99;101666.16;7387149;19;20763;-75
2023/09/14 08:30:15;;;;;;;8.43;2.60;;;;;;;18.20;67.28;101666.84;7389488;19;20360;-75
2023/09/14 08:32:42;;;;;;;10.38;2.60;;;;;;;18.34;66.73;101665.03;7384415;19;20876;-75
2023/09/14 08:35:28;;;;;;;12.55;2.97;;;;;;;18.46;64.34;101668.75;7386701;19;20352;-75
2023/09/14 08:37:55;;;;;;;6.72;2.42;;;;;;;18.53;62.44;101676.81;7389667;19;20724;-75
2023/09/14 08:40:22;;;;;;;6.43;1.87;;;;;;;18.55;62.43;101672.06;7391313;19;20347;-75
2023/09/14 08:42:54;;;;;;;8.70;2.40;;;;;;;18.64;62.76;101668.19;7388664;19;20366;-75
2023/09/14 08:45:29;;;;;;;11.93;1.98;;;;;;;18.72;62.47;101670.69;7390657;19;20377;-75
2023/09/14 08:47:58;;;;;;;11.82;2.00;;;;;;;18.87;61.69;101677.72;7384613;19;20376;-76
2023/09/14 08:50:26;;;;;;;5.57;2.00;;;;;;;18.86;60.09;101676.91;7380544;19;20418;-76
2023/09/14 08:52:54;;;;;;;7.28;2.05;;;;;;;18.84;60.08;101683.53;7388863;19;20364;-76
2023/09/14 08:55:23;;;;;;;6.97;1.85;;;;;;;18.92;62.29;101686.03;7388905;19;20341;-76
2023/09/14 08:57:51;;;;;;;7.97;2.08;;;;;;;19.09;60.59;101686.44;7387217;19;20332;-76
2023/09/14 09:00:19;;;;;;;6.18;1.80;;;;;;;19.18;60.11;101682.50;7386361;19;20340;-76
2023/09/14 09:02:51;;;;;;;5.60;1.90;;;;;;;19.32;59.65;101677.94;7385992;19;20359;-75
2023/09/14 09:05:19;;;;;;;8.02;2.03;;;;;;;19.45;58.96;101680.59;7380273;19;20458;-75
2023/09/14 09:07:50;;;;;;;4.43;1.20;;;;;;;19.56;56.37;101679.13;7378699;19;20919;-75
2023/09/14 09:10:25;;;;;;;4.03;1.67;;;;;;;19.59;57.03;101685.94;7382798;19;20352;-76
2023/09/14 09:12:56;;;;;;;5.97;1.70;;;;;;;19.66;56.53;101686.78;7385215;19;20458;-75
2023/09/14 09:15:29;;;;;;;4.73;1.30;;;;;;;19.83;55.46;101682.63;7388449;19;20361;-76
2023/09/14 09:18:09;;;;;;;5.13;1.13;;;;;;;19.96;54.70;101681.75;7386207;19;20440;-76
2023/09/14 09:20:40;;;;;;;4.93;1.30;;;;;;;20.00;53.46;101687.50;7386337;19;20561;-76
2023/09/14 09:23:08;;;;;;;6.05;1.30;;;;;;;19.96;52.96;101682.56;7387430;19;20385;-75
2023/09/14 09:25:49;;;;;;;4.95;1.17;;;;;;;19.93;53.53;101684.84;7385145;19;20771;-75
2023/09/14 09:28:16;;;;;;;2.75;1.17;;;;;;;20.03;53.67;101681.72;7384620;19;20388;-76
2023/09/14 09:30:44;;;;;;;3.25;1.00;;;;;;;20.05;52.42;101685.84;7385540;19;20916;-75
2023/09/14 09:33:12;;;;;;;4.78;1.10;;;;;;;20.05;52.16;101679.63;7387375;19;20369;-75
2023/09/14 09:35:39;;;;;;;3.28;0.90;;;;;;;20.04;52.30;101678.81;7389525;19;20368;-75
2023/09/14 09:38:14;;;;;;;5.32;1.00;;;;;;;20.02;52.15;101678.19;7389980;19;20364;-75
2023/09/14 09:40:43;;;;;;;2.88;1.13;;;;;;;20.07;51.92;101674.84;7396745;19;20348;-75
2023/09/14 09:43:15;;;;;;;4.82;1.10;;;;;;;20.13;51.39;101679.38;7394614;19;20360;-75
2023/09/14 09:45:43;;;;;;;2.33;0.90;;;;;;;20.10;50.25;101675.25;7392170;19;20390;-75
2023/09/14 09:48:10;;;;;;;3.67;0.95;;;;;;;20.14;49.80;101679.16;7390566;19;20868;-75
2023/09/14 09:50:38;;;;;;;3.35;0.85;;;;;;;20.35;49.87;101671.81;7392692;19;20410;-75
2023/09/14 09:53:12;;;;;;;3.97;0.80;;;;;;;20.48;47.38;101671.72;7397621;19;20349;-75
2023/09/14 09:55:41;;;;;;;4.93;1.20;;;;;;;20.66;46.10;101668.31;7392918;19;20352;-75
2023/09/14 09:58:08;;;;;;;6.20;1.27;;;;;;;21.01;46.66;101667.84;7394183;19;20355;-75
2023/09/14 10:00:37;;;;;;;3.53;0.90;;;;;;;21.25;47.05;101662.63;7396045;19;20403;-76
2023/09/14 10:03:05;;;;;;;4.53;0.85;;;;;;;21.52;47.39;101664.03;7393156;19;20357;-76
2023/09/14 10:05:38;;;;;;;3.73;0.80;;;;;;;21.43;46.71;101670.81;7385690;19;20442;-76
2023/09/14 10:08:12;;;;;;;2.75;0.73;;;;;;;21.41;47.49;101666.66;7392080;19;20375;-76
2023/09/14 10:10:40;;;;;;;3.60;1.03;;;;;;;21.34;45.37;101666.72;7395311;19;20397;-76
2023/09/14 10:13:09;;;;;;;3.27;0.80;;;;;;;21.29;45.97;101669.25;7391842;19;20870;-76
2023/09/14 10:15:36;;;;;;;3.83;0.80;;;;;;;21.44;45.36;101667.03;7391388;19;20383;-76
2023/09/14 10:18:05;;;;;;;2.97;0.75;;;;;;;21.59;44.83;101663.97;7391955;19;20919;-76
2023/09/14 10:20:32;;;;;;;3.47;0.85;;;;;;;21.62;44.65;101660.03;7394951;19;20385;-76
2023/09/14 10:22:59;;;;;;;3.85;0.80;;;;;;;21.73;45.94;101670.06;7386939;19;20360;-76
2023/09/14 10:25:26;;;;;;;3.03;0.98;;;;;;;22.03;45.93;101672.00;7392187;19;20367;-76
2023/09/14 10:27:53;;;;;;;3.92;1.02;;;;;;;22.30;44.03;101672.50;7391255;19;20381;-76
2023/09/14 10:30:20;;;;;;;3.55;0.80;;;;;;;22.63;44.08;101669.28;7394795;19;20364;-76
2023/09/14 10:32:49;;;;;;;2.55;0.80;;;;;;;22.79;41.51;101657.81;7392495;19;20367;-76
2023/09/14 10:35:17;;;;;;;2.58;0.77;;;;;;;22.84;41.35;101658.97;7392266;19;20364;-77
2023/09/14 10:37:46;;;;;;;2.40;0.80;;;;;;;22.98;41.53;101660.41;7391253;19;20395;-77
2023/09/14 10:40:13;;;;;;;4.38;0.95;;;;;;;22.68;40.79;101655.09;7391322;19;20412;-76
2023/09/14 10:42:41;;;;;;;3.95;1.10;;;;;;;22.63;41.64;101655.75;7389770;19;20373;-76
2023/09/14 10:45:13;;;;;;;3.60;1.00;;;;;;;22.58;41.15;101658.34;7389259;19;20415;-77
2023/09/14 10:47:47;;;;;;;3.92;0.93;;;;;;;22.48;41.43;101655.38;7391266;19;20471;-77
2023/09/14 10:50:16;;;;;;;3.63;1.17;;;;;;;22.30;41.98;101657.09;7388864;19;20368;-77
2023/09/14 10:52:43;;;;;;;4.68;1.30;;;;;;;22.22;42.56;101660.09;7391815;19;20369;-76
2023/09/14 10:55:11;;;;;;;3.53;1.00;;;;;;;22.11;41.79;101650.06;7391026;19;20352;-76
2023/09/14 10:57:41;;;;;;;2.80;1.25;;;;;;;22.11;42.47;101647.34;7391460;19;20725;-76
2023/09/14 11:00:28;;;;;;;3.63;0.93;;;;;;;22.07;42.27;101646.97;7386801;19;20371;-76
2023/09/14 11:03:16;;;;;;;5.60;1.35;;;;;;;22.11;42.66;101645.47;7388779;19;20859;-76
2023/09/14 11:05:51;;;;;;;2.80;0.90;;;;;;;22.10;41.77;101638.44;7390128;19;20896;-76
2023/09/14 11:08:20;;;;;;;4.67;1.27;;;;;;;21.88;41.69;101640.78;7388881;19;20369;-76
2023/09/14 11:10:56;;;;;;;3.38;0.90;;;;;;;21.58;41.31;101636.16;7391645;19;20381;-76
2023/09/14 11:13:28;;;;;;;4.18;1.15;;;;;;;21.33;41.76;101632.66;7391938;19;20361;-76
2023/09/14 11:16:06;;;;;;;5.23;1.10;;;;;;;21.26;42.60;101626.53;7385036;19;20420;-76
2023/09/14 11:18:45;;;;;;;4.50;1.10;;;;;;;21.38;43.09;101630.97;7387775;19;20383;-76
2023/09/14 11:21:42;;;;;;;2.78;1.10;;;;;;;21.45;41.98;101625.50;7384213;19;20368;-76
2023/09/14 11:24:10;;;;;;;4.43;1.40;;;;;;;21.58;43.32;101627.25;7378718;19;20360;-76
2023/09/14 11:26:47;;;;;;;3.10;0.87;;;;;;;21.83;42.85;101637.13;7391294;19;20357;-76
2023/09/14 11:29:19;;;;;;;4.13;0.90;;;;;;;22.12;42.47;101630.06;7393224;19;20368;-77
2023/09/14 11:32:20;;;;;;;4.72;1.38;;;;;;;22.49;42.19;101625.41;7392355;19;20837;-77